Time;durP1;ratioP1;P1;durP2;ratioP2;P2;SDS_P1;SDS_P2;PMS_P1;PMS_P2;Temp;Humidity;BMP_temperature;BMP_pressure;BME280_temperature;BME280_humidity;BME280_pressure;Samples;Min_cycle;Max_cycle;Signal;HPM_P1;HPM_P2
2023/06/16 00:00:45;;;;;;;8.57;6.90;;;16.30;99.90;;;;;;5205499;28;20434;-43
2023/06/16 00:03:16;;;;;;;13.97;6.20;;;16.30;99.90;;;;;;5193112;28;20652;-44
2023/06/16 00:05:47;;;;;;;5.87;5.37;;;16.40;99.90;;;;;;5202455;28;20435;-44
2023/06/16 00:08:19;;;;;;;6.60;5.43;;;16.40;99.90;;;;;;5208009;28;20208;-44
2023/06/16 00:10:49;;;;;;;7.87;6.00;;;16.40;99.90;;;;;;5210747;28;20473;-45
2023/06/16 00:13:20;;;;;;;12.10;5.90;;;16.50;99.90;;;;;;5211009;28;20918;-44
2023/06/16 00:15:51;;;;;;;7.37;5.97;;;16.50;99.90;;;;;;5206914;28;20180;-43
2023/06/16 00:18:24;;;;;;;7.93;6.57;;;16.50;99.90;;;;;;5208855;28;20199;-44
2023/06/16 00:20:57;;;;;;;5.00;4.60;;;16.50;99.90;;;;;;5203502;28;20435;-44
2023/06/16 00:23:29;;;;;;;14.60;6.00;;;16.60;99.90;;;;;;5206360;28;20939;-43
2023/06/16 00:25:59;;;;;;;7.17;5.80;;;16.60;99.90;;;;;;5186008;28;20494;-43
2023/06/16 00:28:30;;;;;;;6.33;5.50;;;16.50;99.90;;;;;;5205420;28;20876;-44
2023/06/16 00:31:01;;;;;;;7.00;5.93;;;16.50;99.90;;;;;;5209009;28;20184;-44
2023/06/16 00:33:31;;;;;;;7.33;6.63;;;16.40;99.90;;;;;;5207479;28;20180;-43
2023/06/16 00:36:02;;;;;;;11.90;5.77;;;16.20;99.90;;;;;;5205440;28;20180;-44
2023/06/16 00:38:33;;;;;;;8.70;6.50;;;16.20;99.90;;;;;;5190769;28;20691;-44
2023/06/16 00:41:04;;;;;;;6.67;6.00;;;16.00;99.90;;;;;;5207490;28;20422;-42
2023/06/16 00:43:35;;;;;;;7.50;6.03;;;15.90;99.90;;;;;;5190469;28;20241;-44
2023/06/16 00:46:08;;;;;;;5.60;5.10;;;15.90;99.90;;;;;;5197592;28;20262;-42
2023/06/16 00:48:40;;;;;;;6.90;6.30;;;15.90;99.90;;;;;;5194047;28;20219;-42
2023/06/16 00:51:11;;;;;;;6.30;5.70;;;15.80;99.90;;;;;;5195351;28;20449;-42
2023/06/16 00:53:42;;;;;;;9.50;6.13;;;15.80;99.90;;;;;;5205209;28;20180;-43
2023/06/16 00:56:13;;;;;;;6.07;5.50;;;15.80;99.90;;;;;;5210803;28;20448;-42
2023/06/16 00:58:44;;;;;;;6.67;6.07;;;15.80;99.90;;;;;;5186027;28;20188;-42
2023/06/16 01:01:15;;;;;;;8.27;5.23;;;15.80;99.90;;;;;;5202833;28;20198;-42
2023/06/16 01:03:46;;;;;;;7.97;5.50;;;15.80;99.90;;;;;;5198813;28;20439;-43
2023/06/16 01:06:36;;;;;;;8.40;6.43;;;15.70;99.90;;;;;;5192194;28;20211;-43
2023/06/16 01:09:34;;;;;;;8.27;5.97;;;15.70;99.90;;;;;;5182649;28;20453;-43
2023/06/16 01:12:17;;;;;;;8.13;5.93;;;15.60;99.90;;;;;;5179253;28;20876;-44
2023/06/16 01:15:04;;;;;;;8.30;6.90;;;15.50;99.90;;;;;;5192506;28;20438;-45
2023/06/16 01:17:39;;;;;;;8.10;6.30;;;15.50;99.90;;;;;;5179560;28;20455;-43
2023/06/16 01:20:37;;;;;;;10.80;6.20;;;15.40;99.90;;;;;;5184907;28;20838;-43
2023/06/16 01:23:46;;;;;;;6.90;6.20;;;15.40;99.90;;;;;;5207263;28;20422;-44
2023/06/16 01:26:19;;;;;;;8.70;6.77;;;15.30;99.90;;;;;;5195813;28;20470;-43
2023/06/16 01:28:51;;;;;;;6.63;6.03;;;15.20;99.90;;;;;;5205455;28;20926;-44
2023/06/16 01:31:23;;;;;;;9.30;6.93;;;15.30;99.90;;;;;;5207414;28;20480;-43
2023/06/16 01:33:55;;;;;;;7.00;6.40;;;15.30;99.90;;;;;;5199765;28;20481;-44
2023/06/16 01:36:30;;;;;;;6.27;5.67;;;15.30;99.90;;;;;;5188696;28;21013;-43
2023/06/16 01:39:02;;;;;;;8.00;6.83;;;15.30;99.90;;;;;;5180775;28;20445;-43
2023/06/16 01:41:35;;;;;;;7.13;6.50;;;15.40;99.90;;;;;;5190565;28;20951;-43
2023/06/16 01:44:06;;;;;;;7.27;5.87;;;15.40;99.90;;;;;;5191074;28;20414;-44
2023/06/16 01:46:37;;;;;;;6.40;5.80;;;15.50;99.90;;;;;;5188981;28;20477;-43
2023/06/16 01:49:09;;;;;;;11.43;5.97;;;15.50;99.90;;;;;;5192256;28;20845;-43
2023/06/16 01:51:40;;;;;;;9.30;5.50;;;15.50;99.90;;;;;;5201870;28;20438;-43
2023/06/16 01:54:11;;;;;;;10.03;6.90;;;15.50;99.90;;;;;;5199730;28;20470;-43
2023/06/16 01:56:42;;;;;;;6.20;4.90;;;15.40;99.90;;;;;;5202142;28;20203;-42
2023/06/16 01:59:13;;;;;;;5.17;4.73;;;15.50;99.90;;;;;;5192636;28;20485;-42
2023/06/16 02:01:51;;;;;;;5.63;5.03;;;15.50;99.90;;;;;;5194391;28;20247;-43
2023/06/16 02:04:24;;;;;;;6.10;5.00;;;15.50;99.90;;;;;;5205268;28;20321;-43
2023/06/16 02:07:08;;;;;;;4.30;4.10;;;15.50;99.90;;;;;;5193113;28;20500;-42
2023/06/16 02:09:41;;;;;;;7.00;4.60;;;15.60;99.90;;;;;;5197519;28;20813;-42
2023/06/16 02:12:13;;;;;;;11.17;5.20;;;15.60;99.90;;;;;;5202312;28;20471;-44
2023/06/16 02:14:44;;;;;;;4.60;4.30;;;15.60;99.90;;;;;;5188589;28;20804;-43
2023/06/16 02:17:15;;;;;;;8.30;4.93;;;15.60;99.90;;;;;;5191326;28;20446;-42
2023/06/16 02:19:48;;;;;;;5.77;5.23;;;15.70;99.90;;;;;;5182648;28;20430;-42
2023/06/16 02:22:19;;;;;;;6.27;5.60;;;15.70;99.90;;;;;;5206251;28;20519;-44
2023/06/16 02:24:50;;;;;;;12.53;6.20;;;15.70;99.90;;;;;;5207704;28;20541;-43
2023/06/16 02:27:20;;;;;;;8.63;5.47;;;15.70;99.90;;;;;;5202493;28;20218;-43
2023/06/16 02:29:51;;;;;;;6.63;5.30;;;15.70;99.90;;;;;;5206148;28;20243;-42
2023/06/16 02:32:22;;;;;;;6.03;5.10;;;15.70;99.90;;;;;;5190905;28;20275;-43
2023/06/16 02:34:53;;;;;;;7.63;4.63;;;15.70;99.90;;;;;;5204005;28;20655;-43
2023/06/16 02:37:25;;;;;;;7.20;5.40;;;15.70;99.90;;;;;;5185185;28;20271;-43
2023/06/16 02:39:56;;;;;;;6.23;5.70;;;15.70;99.90;;;;;;5170414;28;20442;-42
2023/06/16 02:42:27;;;;;;;6.40;5.57;;;15.70;99.90;;;;;;5200557;28;20935;-43
2023/06/16 02:44:57;;;;;;;7.27;5.90;;;15.70;99.90;;;;;;5202163;28;20633;-43
2023/06/16 02:47:28;;;;;;;10.60;5.07;;;15.70;99.90;;;;;;5184742;28;20206;-43
2023/06/16 02:49:59;;;;;;;9.10;6.40;;;15.80;99.90;;;;;;5199114;28;20186;-43
2023/06/16 02:52:30;;;;;;;8.30;6.60;;;15.80;99.90;;;;;;5189210;28;20199;-43
2023/06/16 02:55:01;;;;;;;9.07;6.17;;;15.80;99.90;;;;;;5179767;28;20821;-44
2023/06/16 02:57:32;;;;;;;10.63;6.17;;;15.80;99.90;;;;;;5185578;28;20246;-43
2023/06/16 03:00:08;;;;;;;11.50;6.23;;;15.80;99.90;;;;;;5187196;28;20443;-43
2023/06/16 03:02:40;;;;;;;11.33;6.60;;;15.80;99.90;;;;;;5206059;28;20474;-43
2023/06/16 03:05:11;;;;;;;12.60;7.20;;;15.80;99.90;;;;;;5181576;28;20419;-42
2023/06/16 03:07:41;;;;;;;8.97;5.70;;;15.80;99.90;;;;;;5196553;28;20489;-43
2023/06/16 03:10:12;;;;;;;9.60;6.63;;;15.80;99.90;;;;;;5174048;28;20587;-43
2023/06/16 03:12:43;;;;;;;9.20;6.77;;;15.80;99.90;;;;;;5196662;28;20218;-43
2023/06/16 03:15:14;;;;;;;12.10;7.40;;;15.80;99.90;;;;;;5182292;28;20599;-43
2023/06/16 03:17:44;;;;;;;7.53;6.93;;;15.80;99.90;;;;;;5192390;28;20204;-43
2023/06/16 03:20:15;;;;;;;10.73;7.30;;;15.80;99.90;;;;;;5191336;28;20238;-43
2023/06/16 03:22:46;;;;;;;7.23;6.50;;;15.80;99.90;;;;;;5203595;28;20240;-43
2023/06/16 03:25:16;;;;;;;7.53;6.60;;;15.80;99.90;;;;;;5208255;28;20191;-43
2023/06/16 03:27:47;;;;;;;8.50;7.10;;;15.80;99.90;;;;;;5190231;28;20575;-42
2023/06/16 03:30:18;;;;;;;6.73;6.07;;;15.80;99.90;;;;;;5208449;28;20194;-43
2023/06/16 03:32:49;;;;;;;11.17;6.73;;;15.80;99.90;;;;;;5208805;28;20267;-43
2023/06/16 03:35:20;;;;;;;10.77;6.33;;;15.70;99.90;;;;;;5207042;28;20180;-43
2023/06/16 03:37:51;;;;;;;9.13;6.90;;;15.70;99.90;;;;;;5196068;28;20219;-43
2023/06/16 03:40:22;;;;;;;12.10;7.60;;;15.70;99.90;;;;;;5195059;28;20207;-43
2023/06/16 03:42:53;;;;;;;7.10;6.40;;;15.70;99.90;;;;;;5205573;28;20446;-43
2023/06/16 03:45:24;;;;;;;8.23;7.53;;;15.70;99.90;;;;;;5208993;28;20195;-43
2023/06/16 03:47:54;;;;;;;8.30;6.70;;;15.70;99.90;;;;;;5189179;28;20680;-43
2023/06/16 03:50:25;;;;;;;10.20;7.63;;;15.70;99.90;;;;;;5207185;28;20591;-43
2023/06/16 03:52:56;;;;;;;10.30;7.47;;;15.70;99.90;;;;;;5205444;28;20180;-44
2023/06/16 03:55:28;;;;;;;7.63;5.20;;;15.70;99.90;;;;;;5199119;28;20191;-43
2023/06/16 03:57:59;;;;;;;7.30;6.60;;;15.70;99.90;;;;;;5182007;28;20212;-43
2023/06/16 04:00:30;;;;;;;10.90;7.20;;;15.80;99.90;;;;;;5209465;28;20471;-43
2023/06/16 04:03:01;;;;;;;9.10;7.50;;;15.80;99.90;;;;;;5206540;28;20462;-43
2023/06/16 04:05:32;;;;;;;9.43;8.37;;;15.90;99.90;;;;;;5193402;28;20172;-42
2023/06/16 04:08:03;;;;;;;14.40;8.50;;;15.80;99.90;;;;;;5203153;28;20493;-43
2023/06/16 04:10:34;;;;;;;7.90;7.10;;;15.80;99.90;;;;;;5200117;28;20180;-43
2023/06/16 04:13:05;;;;;;;8.43;6.87;;;15.80;99.90;;;;;;5197450;28;20434;-43
2023/06/16 04:15:35;;;;;;;8.00;7.20;;;16.00;99.90;;;;;;5206213;28;20183;-43
2023/06/16 04:18:06;;;;;;;7.87;7.10;;;16.00;99.90;;;;;;5208939;28;20364;-43
2023/06/16 04:20:37;;;;;;;7.83;7.10;;;16.00;99.90;;;;;;5189363;28;20255;-44
2023/06/16 04:23:09;;;;;;;9.10;8.33;;;16.10;99.90;;;;;;5209519;28;20272;-43
2023/06/16 04:25:40;;;;;;;9.70;7.93;;;16.10;99.90;;;;;;5192415;28;20214;-44
2023/06/16 04:28:14;;;;;;;10.10;7.87;;;16.00;99.90;;;;;;5194962;28;20482;-44
2023/06/16 04:30:45;;;;;;;8.63;7.70;;;15.90;99.90;;;;;;5199885;28;20566;-44
2023/06/16 04:33:15;;;;;;;8.13;7.40;;;16.00;99.90;;;;;;5193815;28;20525;-44
2023/06/16 04:35:46;;;;;;;12.27;8.40;;;16.10;99.90;;;;;;5183605;28;20951;-44
2023/06/16 04:38:17;;;;;;;7.60;6.73;;;16.20;99.90;;;;;;5209578;28;20251;-43
2023/06/16 04:40:49;;;;;;;10.80;7.00;;;16.20;99.90;;;;;;5190438;28;20219;-44
2023/06/16 04:43:20;;;;;;;7.20;6.50;;;16.20;99.90;;;;;;5181607;28;20434;-43
2023/06/16 04:45:51;;;;;;;7.37;6.60;;;16.20;99.90;;;;;;5201778;28;20959;-43
2023/06/16 04:48:21;;;;;;;10.20;7.10;;;16.20;99.90;;;;;;5206083;28;20302;-45
2023/06/16 04:50:57;;;;;;;9.20;7.30;;;16.10;99.90;;;;;;5187898;28;20541;-43
2023/06/16 04:53:28;;;;;;;7.17;6.57;;;16.10;99.90;;;;;;5195885;28;20190;-43
2023/06/16 04:55:59;;;;;;;8.37;7.53;;;16.10;99.90;;;;;;5202575;28;20541;-43
2023/06/16 04:58:30;;;;;;;7.73;7.00;;;16.10;99.90;;;;;;5198212;28;20541;-43
2023/06/16 05:01:01;;;;;;;7.30;6.60;;;16.10;99.90;;;;;;5202341;28;20186;-45
2023/06/16 05:03:31;;;;;;;7.13;6.53;;;16.20;99.90;;;;;;5183972;28;20184;-45
2023/06/16 05:06:02;;;;;;;7.43;6.63;;;16.20;99.90;;;;;;5188045;28;20289;-43
2023/06/16 05:08:33;;;;;;;10.03;7.63;;;16.20;99.90;;;;;;5189085;28;20208;-44
2023/06/16 05:11:04;;;;;;;7.27;6.53;;;16.20;99.90;;;;;;5194879;28;20455;-44
2023/06/16 05:13:35;;;;;;;11.13;6.80;;;16.10;99.90;;;;;;5186755;28;20188;-43
2023/06/16 05:16:05;;;;;;;7.17;6.30;;;16.20;99.90;;;;;;5189261;28;20207;-43
2023/06/16 05:18:36;;;;;;;8.80;7.00;;;16.30;99.90;;;;;;5180994;28;20257;-43
2023/06/16 05:21:07;;;;;;;14.97;7.90;;;16.20;99.90;;;;;;5206976;28;20231;-43
2023/06/16 05:23:38;;;;;;;6.83;6.23;;;16.40;99.90;;;;;;5205573;28;20202;-43
2023/06/16 05:26:09;;;;;;;7.87;7.10;;;16.40;99.90;;;;;;5192571;28;20650;-43
2023/06/16 05:28:40;;;;;;;10.30;6.53;;;16.30;99.90;;;;;;5188686;28;20810;-43
2023/06/16 05:31:11;;;;;;;7.30;6.60;;;16.20;99.90;;;;;;5200044;28;20876;-42
2023/06/16 05:33:42;;;;;;;7.23;6.57;;;16.20;99.90;;;;;;5204351;28;20675;-44
2023/06/16 05:36:13;;;;;;;10.97;6.90;;;16.20;99.90;;;;;;5187734;28;20454;-44
2023/06/16 05:38:44;;;;;;;9.53;6.67;;;16.10;99.90;;;;;;5206594;28;20590;-43
2023/06/16 05:41:15;;;;;;;7.60;6.97;;;16.10;99.90;;;;;;5201380;28;20183;-43
2023/06/16 05:43:46;;;;;;;7.17;5.80;;;16.20;99.90;;;;;;5190704;28;20435;-43
2023/06/16 05:46:16;;;;;;;9.33;6.60;;;16.10;99.90;;;;;;5190673;28;20278;-43
2023/06/16 05:48:47;;;;;;;5.80;5.30;;;16.00;99.90;;;;;;5208118;28;20652;-43
2023/06/16 05:51:18;;;;;;;6.97;6.27;;;16.00;99.90;;;;;;5192762;28;20186;-44
2023/06/16 05:53:49;;;;;;;5.60;5.20;;;16.10;99.90;;;;;;5175992;28;20256;-43
2023/06/16 05:56:20;;;;;;;6.07;5.67;;;16.10;99.90;;;;;;5218337;28;20194;-43
2023/06/16 05:58:50;;;;;;;7.77;5.87;;;16.10;99.90;;;;;;5208861;28;20180;-43
2023/06/16 06:01:21;;;;;;;8.37;6.77;;;16.20;99.90;;;;;;5189635;28;20264;-43
2023/06/16 06:03:52;;;;;;;10.80;6.53;;;16.10;99.90;;;;;;5209594;28;20535;-50
2023/06/16 06:06:23;;;;;;;7.17;6.40;;;16.30;99.90;;;;;;5206021;28;20203;-45
2023/06/16 06:09:05;;;;;;;6.47;5.80;;;16.40;99.90;;;;;;5207964;28;20234;-44
2023/06/16 06:11:37;;;;;;;6.77;6.20;;;16.50;99.90;;;;;;5178001;28;20192;-44
2023/06/16 06:14:07;;;;;;;7.60;6.20;;;16.60;99.90;;;;;;5207415;28;20430;-44
2023/06/16 06:16:39;;;;;;;6.23;5.60;;;16.60;99.90;;;;;;5180083;28;20450;-44
2023/06/16 06:19:10;;;;;;;6.33;5.40;;;16.50;99.90;;;;;;5188697;28;20175;-43
2023/06/16 06:21:40;;;;;;;9.77;5.20;;;16.40;99.90;;;;;;5207386;28;20423;-44
2023/06/16 06:24:14;;;;;;;12.40;6.80;;;16.30;99.90;;;;;;5204318;28;20926;-44
2023/06/16 06:26:45;;;;;;;9.13;6.30;;;16.30;99.90;;;;;;5175682;28;20203;-44
2023/06/16 06:29:16;;;;;;;8.97;6.93;;;16.30;99.90;;;;;;5191399;28;20522;-44
2023/06/16 06:31:46;;;;;;;6.40;5.90;;;16.30;99.90;;;;;;5189920;28;20494;-43
2023/06/16 06:34:17;;;;;;;11.80;6.60;;;16.20;99.90;;;;;;5197577;28;20549;-44
2023/06/16 06:36:48;;;;;;;6.47;5.87;;;16.10;99.90;;;;;;5182854;28;20262;-43
2023/06/16 06:39:19;;;;;;;6.50;5.90;;;16.10;99.90;;;;;;5183655;28;20596;-46
2023/06/16 06:41:50;;;;;;;9.00;5.73;;;16.10;99.90;;;;;;5198603;28;20556;-43
2023/06/16 06:44:21;;;;;;;5.00;4.63;;;16.20;99.90;;;;;;5202744;28;20418;-44
2023/06/16 06:46:51;;;;;;;7.03;6.33;;;16.20;99.90;;;;;;5201496;28;20842;-45
2023/06/16 06:49:22;;;;;;;6.10;5.60;;;16.20;99.90;;;;;;5206247;28;20547;-43
2023/06/16 06:51:53;;;;;;;6.60;5.60;;;16.20;99.90;;;;;;5185509;28;20250;-44
2023/06/16 06:54:24;;;;;;;9.03;6.53;;;16.20;99.90;;;;;;5184671;28;20180;-44
2023/06/16 06:56:55;;;;;;;15.33;6.00;;;16.10;99.90;;;;;;5199419;28;20245;-43
2023/06/16 06:59:25;;;;;;;5.90;5.40;;;16.10;99.90;;;;;;5187983;28;20206;-43
2023/06/16 07:01:56;;;;;;;7.33;5.80;;;16.00;99.90;;;;;;5168585;28;20183;-44
2023/06/16 07:04:27;;;;;;;10.97;5.60;;;15.90;99.90;;;;;;5200214;28;20691;-43
2023/06/16 07:06:58;;;;;;;5.17;4.77;;;15.80;99.90;;;;;;5185501;28;20216;-43
2023/06/16 07:09:29;;;;;;;7.03;5.60;;;15.90;99.90;;;;;;5186203;28;20434;-44
2023/06/16 07:12:00;;;;;;;7.50;5.53;;;15.90;99.90;;;;;;5172065;28;20536;-45
2023/06/16 07:14:30;;;;;;;11.57;5.90;;;15.90;99.90;;;;;;5181439;28;20267;-43
2023/06/16 07:17:02;;;;;;;5.70;5.30;;;16.00;99.90;;;;;;5202763;28;20256;-44
2023/06/16 07:19:33;;;;;;;7.00;5.97;;;16.00;99.90;;;;;;5185655;28;20183;-44
2023/06/16 07:22:05;;;;;;;7.10;5.73;;;16.10;99.90;;;;;;5201104;28;20442;-44
2023/06/16 07:24:36;;;;;;;7.40;6.70;;;16.20;99.90;;;;;;5184808;28;20187;-45
2023/06/16 07:27:08;;;;;;;7.53;6.80;;;16.10;99.90;;;;;;5202467;28;20458;-43
2023/06/16 07:29:39;;;;;;;8.10;6.87;;;16.20;99.90;;;;;;5198204;28;20662;-44
2023/06/16 07:32:10;;;;;;;7.73;7.03;;;16.10;99.90;;;;;;5176175;28;20819;-43
2023/06/16 07:34:41;;;;;;;16.20;7.43;;;16.20;99.90;;;;;;5188481;28;20431;-44
2023/06/16 07:37:13;;;;;;;8.83;7.93;;;16.20;99.90;;;;;;5177679;28;20234;-43
2023/06/16 07:39:44;;;;;;;7.37;6.60;;;16.30;99.90;;;;;;5182207;28;20966;-43
2023/06/16 07:42:16;;;;;;;27.23;8.00;;;16.40;99.90;;;;;;5187486;28;20430;-42
2023/06/16 07:44:47;;;;;;;9.13;7.23;;;16.40;99.90;;;;;;5200589;28;20195;-42
2023/06/16 07:47:18;;;;;;;7.37;6.70;;;16.50;99.90;;;;;;5189147;28;20462;-43
2023/06/16 07:49:49;;;;;;;9.17;7.53;;;16.90;99.90;;;;;;5192284;28;20500;-43
2023/06/16 07:52:20;;;;;;;7.73;6.90;;;18.10;99.90;;;;;;5169098;28;20184;-43
2023/06/16 07:54:50;;;;;;;7.50;6.80;;;19.60;99.90;;;;;;5196731;28;20458;-44
2023/06/16 07:57:21;;;;;;;6.23;5.70;;;21.50;99.90;;;;;;5209065;28;20211;-43
2023/06/16 07:59:52;;;;;;;6.60;6.00;;;21.90;99.90;;;;;;5190496;28;20225;-44
2023/06/16 08:02:23;;;;;;;7.80;7.00;;;21.50;99.90;;;;;;5205929;28;20192;-42
2023/06/16 08:04:54;;;;;;;21.63;7.30;;;20.70;99.90;;;;;;5197506;28;20703;-43
2023/06/16 08:07:26;;;;;;;6.50;6.00;;;19.90;99.90;;;;;;5183216;28;20578;-43
2023/06/16 08:09:56;;;;;;;8.47;6.10;;;19.70;99.90;;;;;;5189807;28;20263;-43
2023/06/16 08:12:29;;;;;;;6.33;5.53;;;20.00;99.90;;;;;;5203101;28;20573;-43
2023/06/16 08:15:00;;;;;;;5.30;4.90;;;19.90;99.90;;;;;;5194103;28;20191;-43
2023/06/16 08:17:32;;;;;;;5.30;4.80;;;19.80;99.90;;;;;;5203946;28;20989;-43
2023/06/16 08:20:06;;;;;;;6.57;5.83;;;20.00;99.90;;;;;;5200102;28;20188;-43
2023/06/16 08:22:37;;;;;;;7.93;5.20;;;22.00;99.90;;;;;;5199785;28;20965;-43
2023/06/16 08:25:08;;;;;;;5.83;5.33;;;25.20;99.90;;;;;;5173785;28;20439;-44
2023/06/16 08:27:39;;;;;;;5.30;4.90;;;26.10;92.10;;;;;;5201548;28;20218;-45
2023/06/16 08:30:10;;;;;;;6.57;5.30;;;25.70;87.60;;;;;;5191953;28;20514;-45
2023/06/16 08:32:41;;;;;;;5.17;4.77;;;24.10;92.30;;;;;;5206032;28;20549;-43
2023/06/16 08:35:13;;;;;;;8.03;4.63;;;22.20;99.90;;;;;;5179528;28;20575;-45
2023/06/16 08:37:43;;;;;;;5.60;4.23;;;20.10;99.90;;;;;;5199574;28;20226;-44
2023/06/16 08:40:15;;;;;;;5.13;4.67;;;18.60;99.90;;;;;;5182478;28;20797;-44
2023/06/16 08:42:47;;;;;;;8.87;4.80;;;17.50;99.90;;;;;;5188147;28;20221;-45
2023/06/16 08:45:20;;;;;;;9.83;4.20;;;16.70;99.90;;;;;;5180712;28;20431;-45
2023/06/16 08:47:51;;;;;;;7.83;5.60;;;16.30;99.90;;;;;;5182875;28;20462;-45
2023/06/16 08:50:23;;;;;;;8.23;6.07;;;16.00;99.90;;;;;;5165482;28;20966;-45
2023/06/16 08:52:57;;;;;;;4.97;4.57;;;15.90;99.90;;;;;;5198212;28;20640;-44
2023/06/16 08:55:30;;;;;;;4.80;4.50;;;15.80;99.90;;;;;;5192214;28;20525;-44
2023/06/16 08:58:01;;;;;;;6.67;6.00;;;15.70;99.90;;;;;;5194654;28;20459;-44
2023/06/16 09:00:33;;;;;;;6.57;5.97;;;15.60;99.90;;;;;;5173744;28;21026;-45
2023/06/16 09:03:08;;;;;;;5.83;5.40;;;15.60;99.90;;;;;;5201439;28;20473;-44
2023/06/16 09:05:38;;;;;;;4.43;4.10;;;15.60;99.90;;;;;;5168286;28;20445;-44
2023/06/16 09:08:11;;;;;;;5.87;5.30;;;15.60;99.90;;;;;;5202281;28;20474;-44
2023/06/16 09:10:42;;;;;;;6.77;5.30;;;15.70;99.90;;;;;;5183402;28;20653;-44
2023/06/16 09:13:16;;;;;;;5.63;5.13;;;15.90;99.90;;;;;;5201272;28;20461;-44
2023/06/16 09:15:48;;;;;;;6.20;5.20;;;15.80;99.90;;;;;;5175827;28;20259;-44
2023/06/16 09:18:19;;;;;;;6.67;6.10;;;15.70;99.90;;;;;;5200099;28;20990;-45
2023/06/16 09:20:52;;;;;;;6.03;5.20;;;15.70;99.90;;;;;;5207987;28;20509;-44
2023/06/16 09:23:29;;;;;;;6.73;6.07;;;15.80;99.90;;;;;;5193435;28;20601;-44
2023/06/16 09:26:01;;;;;;;6.80;6.17;;;15.70;99.90;;;;;;5178483;28;20430;-45
2023/06/16 09:28:36;;;;;;;7.90;7.10;;;15.80;99.90;;;;;;5201181;28;20474;-44
2023/06/16 09:31:11;;;;;;;9.20;7.80;;;16.10;99.90;;;;;;5196367;28;20441;-44
2023/06/16 09:33:42;;;;;;;7.10;5.93;;;16.40;99.90;;;;;;5185451;28;20434;-44
2023/06/16 09:36:26;;;;;;;7.07;6.30;;;17.10;99.90;;;;;;5202089;28;20430;-44
2023/06/16 09:38:59;;;;;;;6.20;5.80;;;17.50;99.90;;;;;;5182940;28;20786;-45
2023/06/16 09:41:36;;;;;;;12.50;5.77;;;17.90;99.90;;;;;;5190700;28;20430;-43
2023/06/16 09:44:11;;;;;;;5.37;4.90;;;17.70;99.90;;;;;;5196579;28;20552;-44
2023/06/16 09:46:48;;;;;;;5.00;4.70;;;17.60;99.90;;;;;;5185141;28;20450;-44
2023/06/16 09:49:23;;;;;;;5.73;5.33;;;17.40;99.90;;;;;;5198357;28;20462;-44
2023/06/16 09:51:58;;;;;;;5.83;5.17;;;17.50;99.90;;;;;;5202674;28;20435;-44
2023/06/16 09:54:29;;;;;;;4.87;4.50;;;17.10;99.90;;;;;;5212806;28;20428;-45
2023/06/16 09:57:01;;;;;;;5.10;4.60;;;16.90;99.90;;;;;;5207762;28;20922;-45
2023/06/16 09:59:34;;;;;;;4.97;4.50;;;16.80;99.90;;;;;;5190277;28;20434;-43
2023/06/16 10:02:05;;;;;;;5.33;4.23;;;17.00;99.90;;;;;;5202161;28;20441;-44
2023/06/16 10:04:37;;;;;;;4.30;4.00;;;17.40;99.90;;;;;;5186925;28;20435;-41
2023/06/16 10:07:08;;;;;;;9.17;4.17;;;17.60;99.90;;;;;;5201219;28;20208;-42
2023/06/16 10:09:44;;;;;;;5.83;4.33;;;17.60;99.90;;;;;;5185000;28;20513;-42
2023/06/16 10:12:18;;;;;;;4.63;4.33;;;17.90;99.90;;;;;;5199130;28;20429;-42
2023/06/16 10:14:49;;;;;;;5.43;4.23;;;18.10;99.90;;;;;;5203658;28;20796;-42
2023/06/16 10:17:20;;;;;;;5.30;4.27;;;18.30;99.90;;;;;;5197831;28;20459;-42
2023/06/16 10:19:52;;;;;;;4.17;3.63;;;18.50;99.90;;;;;;5195614;28;20484;-41
2023/06/16 10:22:24;;;;;;;4.23;3.93;;;18.60;99.90;;;;;;5211712;28;20481;-42
2023/06/16 10:24:55;;;;;;;5.70;4.13;;;18.60;99.90;;;;;;5204406;28;20435;-42
2023/06/16 10:27:27;;;;;;;4.57;4.17;;;18.50;99.90;;;;;;5184892;28;20475;-41
2023/06/16 10:30:01;;;;;;;4.30;4.00;;;18.40;99.90;;;;;;5180023;28;20249;-42
2023/06/16 10:32:32;;;;;;;5.07;4.33;;;18.40;99.90;;;;;;5187764;28;20438;-43
2023/06/16 10:35:10;;;;;;;6.63;5.87;;;18.30;99.90;;;;;;5185966;28;20430;-43
2023/06/16 10:37:40;;;;;;;6.37;5.23;;;18.50;99.90;;;;;;5201727;28;20496;-43
2023/06/16 10:40:12;;;;;;;4.53;4.17;;;18.90;99.90;;;;;;5199054;28;20999;-42
2023/06/16 10:42:43;;;;;;;5.20;4.77;;;19.20;99.90;;;;;;5203468;28;20172;-43
2023/06/16 10:45:31;;;;;;;4.73;4.33;;;19.20;99.90;;;;;;5199174;28;20589;-43
2023/06/16 10:48:10;;;;;;;5.10;4.70;;;18.90;99.90;;;;;;5172147;28;20993;-43
2023/06/16 10:50:45;;;;;;;5.67;4.63;;;18.60;99.90;;;;;;5186869;28;20993;-43
2023/06/16 10:53:22;;;;;;;5.07;4.57;;;18.70;99.90;;;;;;5190488;28;20430;-44
2023/06/16 10:56:05;;;;;;;4.67;4.30;;;19.10;99.90;;;;;;5198501;28;20433;-43
2023/06/16 10:58:36;;;;;;;4.53;3.70;;;19.90;99.90;;;;;;5199388;28;20474;-44
2023/06/16 11:01:28;;;;;;;4.53;4.23;;;20.30;99.90;;;;;;5201432;28;20771;-44
2023/06/16 11:04:01;;;;;;;4.57;4.03;;;20.80;99.90;;;;;;5202745;28;20435;-42
2023/06/16 11:07:09;;;;;;;4.87;4.37;;;20.70;99.90;;;;;;5191155;28;20458;-42
2023/06/16 11:09:40;;;;;;;27.37;4.30;;;20.70;99.90;;;;;;5207853;28;20538;-43
2023/06/16 11:12:15;;;;;;;4.70;3.83;;;20.60;99.90;;;;;;5204567;28;20509;-42
2023/06/16 11:14:47;;;;;;;6.93;3.80;;;20.80;99.90;;;;;;5201229;28;20256;-43
2023/06/16 11:17:18;;;;;;;4.57;4.17;;;20.90;99.90;;;;;;5206665;28;20476;-44
2023/06/16 11:19:53;;;;;;;4.93;4.13;;;20.70;99.90;;;;;;5190838;28;20431;-42
2023/06/16 11:22:30;;;;;;;5.53;4.50;;;20.60;99.90;;;;;;5190804;28;20506;-48
2023/06/16 11:25:03;;;;;;;6.00;4.63;;;20.80;99.90;;;;;;5187667;28;20435;-43
2023/06/16 11:27:36;;;;;;;10.03;6.60;;;21.00;99.90;;;;;;5197381;28;21001;-43
2023/06/16 11:30:08;;;;;;;9.30;6.30;;;21.10;99.90;;;;;;5204767;28;20842;-43
2023/06/16 11:32:42;;;;;;;10.27;4.37;;;20.90;99.90;;;;;;5196968;28;20434;-42
2023/06/16 11:35:13;;;;;;;6.53;5.17;;;20.60;99.90;;;;;;5194602;28;20942;-42
2023/06/16 11:37:49;;;;;;;7.30;5.73;;;20.70;99.90;;;;;;5195818;28;20992;-43
2023/06/16 11:40:22;;;;;;;5.20;4.80;;;20.90;99.90;;;;;;5212383;28;20426;-42
2023/06/16 11:42:56;;;;;;;6.57;4.27;;;21.10;99.90;;;;;;5212090;28;20430;-43
2023/06/16 11:45:29;;;;;;;4.83;4.37;;;21.40;99.90;;;;;;5212768;28;20806;-43
2023/06/16 11:48:01;;;;;;;6.53;4.10;;;21.50;99.90;;;;;;5207427;28;20504;-43
2023/06/16 11:50:33;;;;;;;4.13;3.77;;;21.00;99.90;;;;;;5206038;28;20479;-43
2023/06/16 11:53:04;;;;;;;6.63;5.47;;;20.60;99.90;;;;;;5202823;28;20435;-43
2023/06/16 11:55:35;;;;;;;6.03;4.40;;;20.60;99.90;;;;;;5210097;28;20438;-42
2023/06/16 11:58:06;;;;;;;5.37;4.87;;;20.70;99.90;;;;;;5201198;28;20256;-41
2023/06/16 12:00:39;;;;;;;6.10;4.40;;;20.30;99.90;;;;;;5200823;28;20194;-42
2023/06/16 12:03:10;;;;;;;7.70;4.83;;;20.10;99.90;;;;;;5211295;28;20191;-43
2023/06/16 12:05:41;;;;;;;5.17;4.60;;;19.80;99.90;;;;;;5209270;28;20434;-43
2023/06/16 12:08:12;;;;;;;8.90;5.60;;;19.70;99.90;;;;;;5193094;28;20458;-43
2023/06/16 12:10:53;;;;;;;5.60;4.40;;;19.50;99.90;;;;;;5204155;28;20177;-42
2023/06/16 12:13:24;;;;;;;5.70;5.20;;;19.40;99.90;;;;;;5210298;28;20703;-44
2023/06/16 12:15:55;;;;;;;6.20;5.60;;;19.40;99.90;;;;;;5190032;28;20437;-43
2023/06/16 12:18:26;;;;;;;10.90;5.43;;;19.40;99.90;;;;;;5214335;28;20442;-44
2023/06/16 12:20:57;;;;;;;4.83;4.53;;;19.30;99.90;;;;;;5210426;28;20184;-43
2023/06/16 12:23:28;;;;;;;5.83;4.30;;;19.30;99.90;;;;;;5201693;28;20529;-43
2023/06/16 12:25:59;;;;;;;5.57;4.40;;;19.10;99.90;;;;;;5199782;28;20188;-43
2023/06/16 12:28:31;;;;;;;5.43;4.80;;;19.10;99.90;;;;;;5209458;28;20675;-43
2023/06/16 12:31:02;;;;;;;5.60;4.07;;;19.10;99.90;;;;;;5210763;28;20426;-42
2023/06/16 12:33:36;;;;;;;4.33;3.93;;;19.20;99.90;;;;;;5194385;28;20417;-42
2023/06/16 12:36:10;;;;;;;5.17;3.73;;;19.30;99.90;;;;;;5208929;28;20184;-43
2023/06/16 12:38:41;;;;;;;5.40;4.13;;;19.30;99.90;;;;;;5202703;28;20461;-43
2023/06/16 12:41:12;;;;;;;8.50;4.53;;;19.00;99.90;;;;;;5187818;28;20447;-43
2023/06/16 12:43:51;;;;;;;4.23;3.97;;;18.70;99.90;;;;;;5206000;28;20184;-43
2023/06/16 12:46:22;;;;;;;8.70;5.37;;;18.70;99.90;;;;;;5190193;28;20461;-43
2023/06/16 12:48:53;;;;;;;4.73;4.43;;;18.60;99.90;;;;;;5188182;28;20458;-44
2023/06/16 12:51:23;;;;;;;6.67;4.33;;;18.40;99.90;;;;;;5211999;28;20192;-43
2023/06/16 12:53:54;;;;;;;9.27;5.70;;;18.30;99.90;;;;;;5184313;28;20188;-43
2023/06/16 12:56:26;;;;;;;5.10;4.70;;;18.30;99.90;;;;;;5199517;28;20722;-43
2023/06/16 12:58:56;;;;;;;5.23;4.73;;;18.40;99.90;;;;;;5188997;28;20192;-43
2023/06/16 13:01:27;;;;;;;5.23;4.50;;;18.50;99.90;;;;;;5207319;28;20443;-43
2023/06/16 13:03:58;;;;;;;7.60;5.47;;;18.70;99.90;;;;;;5190179;28;20184;-44
2023/06/16 13:06:29;;;;;;;6.57;4.13;;;19.00;99.90;;;;;;5201168;28;20227;-42
2023/06/16 13:09:00;;;;;;;5.03;4.40;;;19.30;99.90;;;;;;5181113;28;20200;-44
2023/06/16 13:11:31;;;;;;;6.33;4.70;;;19.50;99.90;;;;;;5208714;28;20210;-41